TimeEST,TemperatureF,Dew PointF,Humidity,Sea Level PressureIn,VisibilityMPH,Wind Direction,Wind SpeedMPH,Gust SpeedMPH,PrecipitationIn,Events,Conditions,WindDirDegrees,DateUTC
12:25 AM,30.2,30.2,100,29.39,2.5,NNW,15.0,29.9,0.00,Snow,Light Snow,330,2012-12-30 05:25:00
12:53 AM,30.9,30.0,96,29.41,8.0,NW,17.3,25.3,0.00,,Overcast,320,2012-12-30 05:53:00
1:26 AM,30.2,28.4,93,29.42,10.0,NW,18.4,27.6,0.00,,Overcast,320,2012-12-30 06:26:00
1:53 AM,30.9,28.9,92,29.44,10.0,NW,18.4,26.5,0.00,,Overcast,320,2012-12-30 06:53:00
2:53 AM,30.0,28.0,92,29.47,10.0,NW,17.3,25.3,N/A,,Overcast,310,2012-12-30 07:53:00
3:30 AM,30.2,26.6,86,29.48,10.0,NW,18.4,24.2,N/A,,Overcast,310,2012-12-30 08:30:00
3:53 AM,30.0,26.1,85,29.49,10.0,NW,15.0,23.0,N/A,,Overcast,310,2012-12-30 08:53:00
4:53 AM,30.0,26.1,85,29.51,10.0,NW,15.0,24.2,N/A,,Overcast,310,2012-12-30 09:53:00
5:53 AM,28.9,24.1,82,29.54,10.0,NW,12.7,28.8,N/A,,Partly Cloudy,310,2012-12-30 10:53:00
6:53 AM,28.9,21.9,75,29.57,10.0,WNW,18.4,31.1,N/A,,Clear,300,2012-12-30 11:53:00
7:53 AM,28.0,21.0,75,29.61,10.0,NW,23.0,34.5,N/A,,Clear,310,2012-12-30 12:53:00
8:53 AM,28.0,21.0,75,29.64,10.0,NW,21.9,32.2,0.00,,Clear,310,2012-12-30 13:53:00
9:53 AM,28.0,19.9,72,29.68,10.0,NW,18.4,32.2,N/A,,Clear,310,2012-12-30 14:53:00
10:53 AM,28.9,19.0,67,29.68,10.0,NW,19.6,33.4,N/A,,Clear,310,2012-12-30 15:53:00
11:53 AM,28.0,18.0,66,29.69,10.0,WNW,19.6,29.9,N/A,,Clear,290,2012-12-30 16:53:00
12:53 PM,30.0,18.0,61,29.69,10.0,WNW,16.1,29.9,N/A,,Clear,300,2012-12-30 17:53:00
1:53 PM,28.9,17.1,61,29.71,10.0,WNW,18.4,28.8,N/A,,Clear,300,2012-12-30 18:53:00
2:53 PM,30.0,16.0,56,29.73,10.0,WNW,25.3,34.5,N/A,,Clear,300,2012-12-30 19:53:00
3:53 PM,28.0,14.0,56,29.77,10.0,WNW,15.0,28.8,N/A,,Clear,300,2012-12-30 20:53:00
4:53 PM,27.0,12.9,56,29.81,10.0,WNW,20.7,32.2,N/A,,Clear,300,2012-12-30 21:53:00
5:53 PM,27.0,12.9,56,29.86,10.0,WNW,13.8,29.9,N/A,,Clear,300,2012-12-30 22:53:00
6:53 PM,26.1,12.0,55,29.91,10.0,WNW,19.6,31.1,N/A,,Clear,300,2012-12-30 23:53:00
7:53 PM,25.0,12.0,58,29.92,10.0,WNW,18.4,32.2,N/A,,Clear,300,2012-12-31 00:53:00
8:53 PM,24.1,12.0,60,29.94,10.0,WNW,23.0,36.8,N/A,,Clear,300,2012-12-31 01:53:00
9:53 PM,23.0,10.9,60,29.96,10.0,WNW,15.0,27.6,N/A,,Clear,300,2012-12-31 02:53:00
10:53 PM,23.0,10.9,60,30.00,10.0,WNW,19.6,31.1,N/A,,Clear,300,2012-12-31 03:53:00
11:53 PM,21.9,10.0,60,30.01,10.0,NW,15.0,24.2,N/A,,Clear,310,2012-12-31 04:53:00